Aérodrome :
LOGIN :

S'inscrire | Disclaimer

   EN    FR    IT 

 










Légende :    VFR   VFR Marginal   IFR   IFR Intensif   IFR Très Intensif
Visi : 
Plafond : 
>= 8 km
>= 3000ft
5 à 8 km
1000 à 3000 ft
1500m à 5 km
500 à 1000 ft
800 à 1500m
200 à 500 ft
< 800m
< 200 ft
Symboles :   Orages  Brouillard  Fortes neiges  Fortes précipitations  Vent > 20 kt
SIGMETs :   Divers  Orages  Givrage  Turbulence  Onde Orograph.  Cendres Volcan.







- Altitude de l'aérodrome : 359 ft
- Code IATA : BVA
- Voir les cartes d'approche


LFOB - Beauvais

DERNIER METAR :
  • 261300Z AUTO 35005KT 290V040 9999 SCT039 BKN047 12/03 Q1033 NOSIG

METARs EXPIRÉS :
  • 261230Z AUTO 04006KT 330V090 9999 BKN038 BKN045 11/03 Q1033 NOSIG
  • 261200Z AUTO 03006KT 350V080 9999 BKN036 BKN045 11/02 Q1033 NOSIG
  • 261130Z AUTO 02005KT 330V090 9999 BKN033 BKN041 11/03 Q1034 NOSIG
  • 261100Z AUTO 36007KT 320V070 9999 SCT030 SCT038 10/02 Q1034 NOSIG
  • 261030Z AUTO 01006KT 320V040 9999 BKN028 09/02 Q1034 NOSIG

TAF TAF LFOB
Valide du 26 à 12h jusqu'au 27 à 12h UTC


261100Z 2612/2712 01006KT 9999 SCT035
PROB30 2622/2707 2000 BR
ATIS : +33 3 44 11 49 28
Pas de NOTAMs connus pour ce terrain.



MET'MAP, la Météo Aéronautique d'un coup d'oeil ! - Copyright ORBIFLY Décembre 2007 - Disclaimer

ORBIFLY MET'MAP TEAM :

Programmation & Développement : Alexandra Zaïnal
Conception & Développement : Baudouin d'Aumeries
Co-Programmation & Développement : Marc-Olivier Méhu
Soutien technique & logistique : Manuel Goepfert

Contact : metmap@orbifly.com




SOURCES & CREDITS :

   NOAA